createdAt,value
2022-10-04T04:08:14.902Z,7.99
2022-10-04T04:11:28.356Z,8.07
2022-10-04T04:14:31.594Z,8.04
2022-10-04T04:17:38.191Z,8.13
2022-10-04T04:20:43.118Z,8.05
2022-10-04T04:23:59.712Z,8.08
2022-10-04T04:27:05.461Z,8.05
2022-10-04T04:30:15.934Z,7.97
2022-10-04T04:33:51.550Z,8.03
2022-10-04T04:36:59.590Z,7.98
2022-10-04T04:40:20.758Z,7.87
2022-10-04T04:43:27.947Z,7.90
2022-10-04T04:46:31.999Z,7.92
2022-10-04T04:49:39.824Z,7.86
2022-10-04T04:52:52.289Z,7.90
2022-10-04T04:56:03.799Z,8.01
2022-10-04T04:59:07.641Z,8.32
2022-10-04T05:02:35.119Z,8.54
2022-10-04T05:05:38.158Z,8.88
2022-10-04T05:08:50.519Z,9.26
2022-10-04T05:11:57.467Z,9.50
2022-10-04T05:15:00.452Z,9.74
2022-10-04T05:18:33.380Z,9.84
2022-10-04T05:21:48.904Z,10.06
2022-10-04T05:25:00.102Z,10.19
2022-10-04T05:28:03.175Z,10.11
2022-10-04T05:31:28.303Z,10.32
2022-10-04T05:34:36.740Z,10.17
2022-10-04T05:38:10.648Z,10.27
2022-10-04T05:41:36.558Z,10.29
2022-10-04T05:45:13.841Z,10.32
2022-10-04T05:48:18.474Z,10.47
2022-10-04T05:51:37.675Z,10.76
2022-10-04T05:54:40.667Z,11.03
2022-10-04T05:58:05.035Z,11.23
2022-10-04T06:01:45.885Z,11.41
2022-10-04T06:05:06.278Z,11.32
2022-10-04T14:39:16.262Z,14.29
2022-10-04T14:42:38.494Z,14.71
2022-10-04T14:46:16.764Z,14.56
2022-10-04T14:49:51.729Z,14.34
2022-10-04T14:52:57.985Z,14.20
2022-10-04T14:56:12.594Z,13.88
2022-10-04T14:59:22.703Z,14.00
2022-10-04T15:02:40.771Z,13.90
2022-10-04T15:06:06.779Z,13.88
2022-10-04T15:09:25.172Z,13.84
2022-10-04T15:12:51.797Z,13.80
2022-10-04T15:16:08.876Z,13.72
2022-10-04T15:19:20.824Z,13.62
2022-10-04T15:23:07.346Z,13.71
2022-10-04T15:26:36.237Z,13.73
2022-10-04T15:30:30.937Z,13.91
2022-10-04T15:33:45.667Z,13.95
2022-10-04T15:36:51.633Z,13.96
2022-10-04T15:40:22.499Z,13.83
2022-10-04T15:43:31.579Z,13.70
2022-10-04T15:46:43.856Z,13.73
2022-10-04T15:50:21.441Z,13.59
2022-10-04T15:54:03.290Z,13.54
2022-10-04T15:57:32.854Z,13.19
2022-10-04T16:01:04.175Z,13.09
2022-10-04T16:04:25.367Z,12.89
2022-10-04T16:07:41.638Z,12.76
2022-10-04T16:11:00.571Z,12.65
2022-10-04T16:14:22.065Z,12.53
2022-10-04T16:17:42.359Z,12.47
2022-10-04T16:21:06.299Z,12.33
2022-10-04T16:24:18.602Z,12.24
2022-10-04T16:27:27.139Z,12.46
2022-10-04T16:31:13.628Z,12.35
2022-10-04T16:34:34.226Z,12.28
2022-10-04T16:38:00.569Z,12.06
2022-10-04T16:41:29.279Z,11.84
2022-10-04T16:44:39.937Z,11.59
2022-10-04T16:47:48.861Z,11.40
2022-10-04T16:51:13.119Z,11.25
2022-10-04T16:54:42.352Z,11.12
2022-10-04T16:57:45.967Z,11.01
2022-10-04T17:00:49.872Z,10.90
2022-10-04T17:03:53.433Z,10.80
2022-10-04T17:07:14.587Z,10.74
2022-10-04T17:10:53.557Z,10.67
2022-10-04T17:14:07.440Z,10.58
2022-10-04T17:17:49.385Z,10.50
2022-10-04T17:20:59.014Z,10.45
2022-10-04T17:24:17.317Z,10.32
2022-10-04T17:27:56.603Z,10.17
2022-10-04T17:31:12.315Z,10.08
2022-10-04T17:34:51.160Z,10.00
2022-10-04T17:38:07.605Z,9.94
2022-10-04T17:41:41.160Z,9.86
2022-10-04T17:45:22.096Z,9.80
2022-10-04T17:48:47.788Z,9.78
2022-10-04T17:52:15.559Z,9.69
2022-10-04T17:55:35.829Z,9.61
2022-10-04T17:58:51.306Z,9.56
2022-10-04T18:02:03.147Z,9.48
2022-10-04T18:05:26.864Z,9.45
2022-10-04T18:08:46.597Z,9.31
2022-10-04T18:11:57.239Z,9.23
2022-10-04T18:15:28.769Z,9.08
2022-10-04T18:18:39.998Z,8.88
2022-10-04T18:21:51.767Z,8.79
2022-10-04T18:25:13.384Z,8.76
2022-10-04T18:28:21.818Z,8.69
2022-10-04T18:31:29.469Z,8.64
2022-10-04T18:34:35.465Z,8.64
2022-10-04T18:37:39.244Z,8.59
2022-10-04T18:40:52.893Z,8.50
2022-10-04T18:43:59.409Z,8.45
2022-10-04T18:47:02.437Z,8.32
2022-10-04T18:50:33.675Z,8.17
2022-10-04T18:53:46.132Z,8.08
2022-10-04T18:57:10.829Z,7.57
2022-10-04T19:00:33.590Z,7.74
2022-10-04T19:03:56.647Z,7.79
2022-10-04T19:07:37.552Z,7.81
2022-10-04T19:10:54.498Z,7.71
2022-10-04T19:14:11.019Z,7.67
2022-10-04T19:17:27.631Z,7.65
2022-10-04T19:20:44.409Z,7.64
2022-10-04T19:24:14.365Z,7.51
2022-10-04T19:27:26.492Z,7.54
2022-10-04T19:31:10.409Z,7.45
2022-10-04T19:34:54.710Z,7.47
2022-10-04T19:38:31.803Z,7.55
2022-10-04T19:41:46.505Z,7.60
2022-10-04T19:45:11.334Z,7.29
2022-10-04T19:48:25.777Z,7.65
2022-10-04T19:51:37.509Z,7.44
2022-10-04T19:54:40.375Z,7.25
2022-10-04T19:57:49.485Z,7.27
2022-10-04T20:00:53.389Z,7.35
2022-10-04T20:04:16.020Z,7.29
2022-10-04T20:07:23.409Z,7.25
2022-10-04T20:10:33.827Z,7.22
2022-10-04T20:13:36.551Z,7.12
2022-10-04T20:17:04.168Z,7.15
2022-10-04T20:20:08.016Z,7.04
2022-10-04T20:23:40.589Z,7.06
2022-10-04T20:26:56.781Z,7.00
2022-10-04T20:30:06.501Z,7.02
2022-10-04T20:33:10.082Z,7.08
2022-10-04T20:36:41.550Z,7.08
2022-10-04T20:39:47.291Z,7.23
2022-10-04T20:43:15.112Z,7.23
2022-10-04T20:46:25.735Z,7.19
2022-10-04T20:49:28.841Z,7.15
2022-10-04T20:52:33.710Z,7.28
2022-10-04T20:55:38.976Z,7.32
2022-10-04T20:58:41.778Z,7.20
2022-10-04T21:02:02.180Z,7.22
2022-10-04T21:05:18.045Z,7.18
2022-10-04T21:08:26.460Z,7.21
2022-10-04T21:11:44.731Z,7.25
2022-10-04T21:15:13.364Z,7.20
2022-10-04T21:18:23.956Z,7.20
2022-10-04T21:21:49.454Z,7.18
2022-10-04T21:25:25.762Z,7.30
2022-10-04T21:28:34.422Z,7.24
2022-10-04T21:31:37.207Z,7.20
2022-10-04T21:34:52.946Z,7.23
2022-10-04T21:37:58.978Z,7.16
2022-10-04T21:41:02.351Z,7.01
2022-10-04T21:44:04.998Z,6.98
2022-10-04T21:47:08.126Z,7.04
2022-10-04T21:50:10.917Z,7.01
2022-10-04T21:53:13.872Z,7.00
2022-10-04T21:56:16.542Z,6.86
2022-10-04T21:59:22.414Z,6.82
2022-10-04T22:02:25.097Z,6.84
2022-10-04T22:05:28.173Z,6.77
2022-10-04T22:08:30.826Z,6.66
2022-10-04T22:11:33.909Z,6.74
2022-10-04T22:14:36.564Z,6.60
2022-10-04T22:17:39.519Z,6.52
2022-10-04T22:20:42.520Z,6.54
2022-10-04T22:23:45.630Z,6.44
2022-10-04T22:26:48.948Z,6.52
2022-10-04T22:29:55.431Z,6.40
2022-10-04T22:33:00.669Z,6.32
2022-10-04T22:36:21.742Z,6.21
2022-10-04T22:39:25.274Z,6.21
2022-10-04T22:42:31.738Z,6.10
2022-10-04T22:45:34.413Z,6.08
2022-10-04T22:48:37.387Z,6.06
2022-10-04T22:51:41.433Z,6.06
2022-10-04T22:54:47.378Z,5.99
2022-10-04T22:57:50.430Z,5.88
2022-10-04T23:00:55.214Z,5.85
2022-10-04T23:03:58.451Z,5.83
2022-10-04T23:07:01.356Z,5.87
2022-10-04T23:10:04.403Z,6.08
2022-10-04T23:13:07.451Z,5.77
2022-10-04T23:16:12.327Z,5.84
2022-10-04T23:19:20.633Z,5.80
2022-10-04T23:22:27.819Z,5.90
2022-10-04T23:25:31.277Z,5.94
2022-10-04T23:28:34.077Z,6.03
2022-10-04T23:31:37.403Z,5.90
2022-10-04T23:34:45.974Z,5.95
2022-10-04T23:37:49.917Z,5.96
2022-10-04T23:40:54.126Z,6.01
2022-10-04T23:43:57.172Z,6.20
2022-10-04T23:47:00.458Z,6.11
2022-10-04T23:50:19.781Z,6.13
2022-10-04T23:53:31.890Z,6.07
2022-10-04T23:56:35.187Z,6.00
2022-10-04T23:59:39.726Z,5.90
